Time;durP1;ratioP1;P1;durP2;ratioP2;P2;SDS_P1;SDS_P2;PMS_P1;PMS_P2;Temp;Humidity;BMP_temperature;BMP_pressure;BME280_temperature;BME280_humidity;BME280_pressure;Samples;Min_cycle;Max_cycle;Signal;HPM_P1;HPM_P2
2021/12/13 00:00:58;;;;;;;26.90;14.20;;;;;;;-3.18;88.31;97323.83;107500;1287;40200;-75
2021/12/13 00:03:32;;;;;;;27.30;15.00;;;;;;;-3.21;88.37;97328.85;107629;1286;32692;-75
2021/12/13 00:06:07;;;;;;;24.20;14.00;;;;;;;-3.25;88.26;97329.94;107599;1286;40541;-75
2021/12/13 00:08:39;;;;;;;21.40;12.60;;;;;;;-3.28;88.39;97330.30;107585;1287;35143;-75
2021/12/13 00:11:12;;;;;;;24.10;13.50;;;;;;;-3.29;88.49;97330.58;107553;1287;33590;-75
2021/12/13 00:13:44;;;;;;;24.10;13.80;;;;;;;-3.28;88.54;97331.39;107483;1287;53946;-75
2021/12/13 00:16:14;;;;;;;18.80;10.80;;;;;;;-3.31;88.58;97332.30;107622;1287;40195;-75
2021/12/13 00:18:47;;;;;;;19.40;11.50;;;;;;;-3.37;88.43;97330.77;107507;1286;30604;-75
2021/12/13 00:21:21;;;;;;;19.00;10.20;;;;;;;-3.41;88.54;97327.93;107529;1286;49709;-75
2021/12/13 00:23:54;;;;;;;22.90;10.90;;;;;;;-3.42;88.58;97326.16;107569;1287;31537;-75
2021/12/13 00:26:28;;;;;;;17.00;9.80;;;;;;;-3.43;88.63;97325.27;107546;1287;34267;-75
2021/12/13 00:28:58;;;;;;;18.00;9.00;;;;;;;-3.43;88.52;97322.91;107613;1287;56102;-75
2021/12/13 00:31:36;;;;;;;18.20;9.80;;;;;;;-3.44;88.68;97319.89;107629;1286;33288;-75
2021/12/13 00:34:19;;;;;;;15.80;8.90;;;;;;;-3.46;88.77;97319.46;107568;1284;30947;-75
2021/12/13 00:36:50;;;;;;;21.80;10.80;;;;;;;-3.50;88.60;97324.48;107525;1285;43323;-75
2021/12/13 00:39:24;;;;;;;21.20;9.10;;;;;;;-3.50;88.82;97328.83;107573;1286;35090;-75
2021/12/13 00:41:54;;;;;;;19.50;10.00;;;;;;;-3.49;88.84;97329.91;107590;1285;38354;-75
2021/12/13 00:44:29;;;;;;;17.90;10.10;;;;;;;-3.50;88.92;97334.41;107589;1287;35938;-75
2021/12/13 00:47:02;;;;;;;17.90;9.50;;;;;;;-3.52;88.87;97336.63;107633;1287;28144;-75
2021/12/13 00:49:32;;;;;;;23.00;12.40;;;;;;;-3.50;88.93;97339.23;107690;1285;30904;-75
2021/12/13 00:52:02;;;;;;;22.60;11.60;;;;;;;-3.41;89.15;97344.36;107582;1286;36075;-75
2021/12/13 00:54:36;;;;;;;19.70;9.70;;;;;;;-3.39;89.10;97351.81;107651;1287;31684;-75
2021/12/13 00:57:39;;;;;;;18.90;10.40;;;;;;;-3.39;89.13;97351.94;107573;1286;30109;-75
2021/12/13 01:00:16;;;;;;;26.60;15.40;;;;;;;-3.31;89.17;97345.02;107563;1287;33863;-75
2021/12/13 01:02:49;;;;;;;29.70;17.20;;;;;;;-3.23;89.24;97336.73;107514;1287;41997;-75
2021/12/13 01:05:26;;;;;;;27.40;16.30;;;;;;;-3.17;89.19;97335.81;107532;1286;35570;-75
2021/12/13 01:08:14;;;;;;;24.60;15.00;;;;;;;-3.11;89.02;97341.02;107517;1286;56014;-76
2021/12/13 01:11:15;;;;;;;29.50;16.10;;;;;;;-3.05;88.88;97332.67;107543;1286;37931;-75
2021/12/13 01:14:00;;;;;;;24.80;15.40;;;;;;;-3.03;88.72;97330.95;107507;1284;38992;-75
2021/12/13 01:16:49;;;;;;;29.10;13.60;;;;;;;-3.02;88.81;97330.23;107534;1287;37443;-76
2021/12/13 01:19:30;;;;;;;29.30;14.60;;;;;;;-2.95;88.82;97325.36;107579;1287;37475;-75
2021/12/13 01:25:23;;;;;;;24.70;13.20;;;;;;;-2.93;88.51;97341.80;107646;1286;34686;-75
2021/12/13 01:28:03;;;;;;;19.10;10.70;;;;;;;-2.89;88.68;97335.23;107542;1286;33862;-75
2021/12/13 01:30:36;;;;;;;25.50;14.30;;;;;;;-2.90;88.36;97327.20;107566;1286;43644;-75
2021/12/13 01:33:08;;;;;;;26.90;14.90;;;;;;;-2.89;88.42;97327.22;107655;1287;31755;-76
2021/12/13 01:35:39;;;;;;;28.90;16.80;;;;;;;-2.91;88.38;97331.53;107499;1286;43589;-76
2021/12/13 01:38:14;;;;;;;25.30;14.00;;;;;;;-2.92;88.24;97328.69;107501;1285;31787;-76
2021/12/13 01:40:46;;;;;;;23.70;12.80;;;;;;;-2.91;88.39;97320.27;107510;1286;36402;-76
2021/12/13 01:43:18;;;;;;;19.50;11.70;;;;;;;-2.88;88.54;97318.56;107572;1287;56272;-75
2021/12/13 01:45:49;;;;;;;25.70;13.90;;;;;;;-2.81;88.61;97313.14;107540;1287;32466;-75
2021/12/13 01:48:23;;;;;;;19.50;10.20;;;;;;;-2.73;88.47;97312.30;107572;1286;39295;-75
2021/12/13 01:51:04;;;;;;;20.70;10.00;;;;;;;-2.69;88.32;97314.73;107613;1284;29615;-76
2021/12/13 01:53:41;;;;;;;16.60;7.70;;;;;;;-2.71;88.13;97313.55;107558;1285;56354;-75
2021/12/13 01:56:35;;;;;;;19.60;11.70;;;;;;;-2.70;88.23;97317.73;106287;1285;1764629;-76
2021/12/13 01:59:16;;;;;;;19.10;10.50;;;;;;;-2.73;88.08;97322.76;107572;1286;44558;-75
2021/12/13 02:01:45;;;;;;;18.10;10.40;;;;;;;-2.81;87.85;97320.09;107621;1282;35244;-75
2021/12/13 02:04:15;;;;;;;16.20;7.30;;;;;;;-2.92;87.71;97316.71;107547;1287;51137;-75
2021/12/13 02:06:48;;;;;;;13.90;7.60;;;;;;;-3.05;87.99;97311.89;107579;1287;39337;-75
2021/12/13 02:09:20;;;;;;;13.10;7.10;;;;;;;-3.11;88.08;97313.49;107533;1284;64336;-75
2021/12/13 02:11:53;;;;;;;14.90;6.60;;;;;;;-3.21;88.12;97321.91;107533;1287;43004;-75
2021/12/13 02:14:27;;;;;;;14.10;6.50;;;;;;;-3.30;88.19;97321.77;107554;1286;32546;-75
2021/12/13 02:17:01;;;;;;;12.70;6.90;;;;;;;-3.38;88.27;97318.30;107514;1282;36358;-75
2021/12/13 02:19:44;;;;;;;11.00;5.80;;;;;;;-3.42;88.53;97314.41;107633;1285;39606;-75
2021/12/13 02:22:40;;;;;;;13.40;5.50;;;;;;;-3.47;88.53;97317.48;107531;1286;35581;-75
2021/12/13 02:25:18;;;;;;;9.90;4.30;;;;;;;-3.52;88.64;97321.48;107528;1284;34448;-75
2021/12/13 02:27:51;;;;;;;11.10;4.60;;;;;;;-3.55;88.83;97316.59;107459;1286;46697;-75
2021/12/13 02:30:28;;;;;;;10.20;4.80;;;;;;;-3.58;88.69;97312.98;107503;1286;41496;-75
2021/12/13 02:32:58;;;;;;;10.90;4.80;;;;;;;-3.63;88.68;97314.23;107597;1286;59891;-75
2021/12/13 02:35:30;;;;;;;11.40;5.50;;;;;;;-3.67;88.79;97310.62;107539;1285;42100;-75
2021/12/13 02:38:00;;;;;;;10.50;6.00;;;;;;;-3.72;88.76;97305.36;107807;1285;35926;-75
2021/12/13 02:40:28;;;;;;;;;;;;;;;-3.75;88.89;97301.34;107611;1286;31241;-75
2021/12/13 02:42:57;;;;;;;16.40;7.90;;;;;;;-3.77;88.96;97305.09;107496;1287;35606;-75
2021/12/13 02:45:31;;;;;;;16.00;5.50;;;;;;;-3.82;89.12;97306.13;107548;1286;50549;-75
2021/12/13 02:48:05;;;;;;;10.00;3.90;;;;;;;-3.85;89.37;97306.02;107577;1287;59873;-75
2021/12/13 02:50:43;;;;;;;7.40;3.80;;;;;;;-3.87;89.77;97308.95;107554;1286;37464;-75
2021/12/13 02:53:14;;;;;;;12.80;5.70;;;;;;;-3.83;90.06;97312.00;107563;1285;42467;-75
2021/12/13 02:55:43;;;;;;;17.00;8.20;;;;;;;-3.72;90.07;97305.50;107534;1287;50197;-75
2021/12/13 02:58:16;;;;;;;15.70;8.40;;;;;;;-3.55;90.11;97299.89;107579;1287;34888;-75
2021/12/13 03:00:52;;;;;;;18.80;10.50;;;;;;;-3.44;90.01;97298.13;107554;1285;41285;-75
2021/12/13 03:03:29;;;;;;;18.70;11.40;;;;;;;-3.43;89.63;97302.69;107548;1286;47573;-75
2021/12/13 03:06:01;;;;;;;15.10;7.90;;;;;;;-3.52;89.45;97294.29;107669;1286;32310;-75
2021/12/13 03:08:35;;;;;;;11.00;6.70;;;;;;;-3.50;89.52;97293.77;107615;1286;41062;-75
2021/12/13 03:11:08;;;;;;;14.50;6.80;;;;;;;-3.40;89.78;97288.14;107601;1282;38144;-76
2021/12/13 03:13:38;;;;;;;13.80;8.00;;;;;;;-3.28;89.86;97285.77;107574;1286;36070;-75
2021/12/13 03:16:15;;;;;;;16.40;8.40;;;;;;;-3.17;89.86;97290.37;107477;1286;74290;-75
2021/12/13 03:18:50;;;;;;;17.20;9.40;;;;;;;-3.11;89.65;97290.54;107543;1287;42836;-76
2021/12/13 03:21:51;;;;;;;16.90;7.10;;;;;;;-3.08;89.67;97293.64;107568;1285;51650;-76
2021/12/13 03:24:23;;;;;;;;;;;;;;;-3.06;89.54;97298.27;107579;1285;32441;-75
2021/12/13 03:27:14;;;;;;;13.30;7.20;;;;;;;-3.11;89.27;97294.95;107541;1286;50948;-75
2021/12/13 03:29:57;;;;;;;13.20;6.30;;;;;;;-3.14;89.34;97290.86;107523;1286;44505;-75
2021/12/13 03:32:35;;;;;;;15.60;7.30;;;;;;;-3.15;89.33;97289.89;107558;1285;30550;-76
2021/12/13 03:35:11;;;;;;;15.50;8.10;;;;;;;-3.16;89.30;97289.58;107556;1286;43998;-75
2021/12/13 03:37:41;;;;;;;16.80;9.30;;;;;;;-3.19;89.27;97293.73;107555;1285;36327;-75
2021/12/13 03:40:16;;;;;;;16.60;7.50;;;;;;;-3.23;89.05;97291.08;107515;1286;45633;-75
2021/12/13 03:42:50;;;;;;;18.60;7.80;;;;;;;-3.28;89.19;97293.98;107524;1284;32154;-75
2021/12/13 03:45:23;;;;;;;15.00;8.50;;;;;;;-3.25;89.33;97297.01;107471;1286;54810;-75
2021/12/13 03:47:56;;;;;;;15.60;7.50;;;;;;;-3.23;89.22;97293.50;107635;1286;31324;-76
2021/12/13 03:50:28;;;;;;;15.70;8.70;;;;;;;-3.28;89.29;97288.95;107480;1286;39786;-75
2021/12/13 03:53:01;;;;;;;16.80;8.10;;;;;;;-3.33;89.00;97289.75;107565;1284;32666;-75
2021/12/13 03:55:33;;;;;;;14.10;8.00;;;;;;;-3.37;89.23;97298.02;107633;1286;35364;-76
2021/12/13 03:58:07;;;;;;;11.30;6.70;;;;;;;-3.42;89.24;97300.08;107606;1286;39793;-75
2021/12/13 04:00:39;;;;;;;13.20;8.10;;;;;;;-3.43;89.30;97300.19;107523;1286;41007;-75
2021/12/13 04:03:11;;;;;;;10.00;5.80;;;;;;;-3.42;89.49;97305.30;107552;1287;49470;-75
2021/12/13 04:05:40;;;;;;;12.60;6.50;;;;;;;-3.44;89.38;97312.84;107572;1286;31704;-76
2021/12/13 04:08:12;;;;;;;9.90;5.10;;;;;;;-3.47;89.38;97317.86;107527;1286;46520;-76
2021/12/13 04:10:45;;;;;;;7.50;4.20;;;;;;;-3.54;89.22;97319.92;107541;1287;32338;-76
2021/12/13 04:13:17;;;;;;;7.10;3.90;;;;;;;-3.62;89.07;97312.21;107465;1286;52034;-76
2021/12/13 04:16:02;;;;;;;9.00;3.90;;;;;;;-3.69;88.97;97310.55;107691;1284;40946;-76
2021/12/13 04:19:06;;;;;;;7.00;3.90;;;;;;;-3.75;88.92;97310.09;107553;1287;47352;-75
2021/12/13 04:21:40;;;;;;;13.50;7.50;;;;;;;-3.77;89.05;97311.49;107614;1287;33723;-76
2021/12/13 04:24:14;;;;;;;9.90;6.00;;;;;;;-3.78;89.11;97317.48;107532;1284;36760;-76
2021/12/13 04:26:47;;;;;;;13.80;7.20;;;;;;;-3.86;88.90;97320.63;107503;1286;47398;-76
2021/12/13 04:29:19;;;;;;;9.20;4.70;;;;;;;-3.90;89.05;97326.71;107555;1286;32443;-76
2021/12/13 04:31:53;;;;;;;3.40;1.40;;;;;;;-3.95;89.45;97329.83;107584;1285;31935;-76
2021/12/13 04:34:25;;;;;;;5.00;2.00;;;;;;;-4.01;89.61;97328.40;107547;1286;38024;-76
2021/12/13 04:36:56;;;;;;;3.90;2.30;;;;;;;-4.05;89.99;97331.52;107546;1286;32792;-76
2021/12/13 04:39:32;;;;;;;9.40;5.90;;;;;;;-4.13;90.01;97327.91;107516;1287;39962;-76
2021/12/13 04:42:03;;;;;;;12.90;6.20;;;;;;;-4.20;90.27;97332.15;107571;1287;39684;-76
2021/12/13 04:44:38;;;;;;;11.60;5.10;;;;;;;-4.24;90.46;97333.65;107596;1286;28177;-76
2021/12/13 04:47:11;;;;;;;11.80;6.00;;;;;;;-4.25;90.50;97335.45;107542;1287;42239;-76
2021/12/13 04:49:46;;;;;;;13.20;8.00;;;;;;;-4.26;90.32;97343.96;107554;1287;41066;-76
2021/12/13 04:52:17;;;;;;;15.10;8.30;;;;;;;-4.30;90.23;97346.30;107608;1286;39058;-75
2021/12/13 04:54:50;;;;;;;17.30;9.90;;;;;;;-4.38;90.06;97336.83;107576;1286;56852;-76
2021/12/13 04:57:21;;;;;;;24.20;12.40;;;;;;;-4.41;90.06;97334.23;107596;1286;30973;-75
2021/12/13 04:59:53;;;;;;;21.90;12.40;;;;;;;-4.45;89.87;97335.04;107594;1286;34163;-76
2021/12/13 05:02:23;;;;;;;23.70;10.90;;;;;;;-4.46;89.71;97338.60;107531;1286;48293;-75
2021/12/13 05:04:54;;;;;;;22.20;12.90;;;;;;;-4.46;89.85;97334.66;107499;1286;46240;-75
2021/12/13 05:07:25;;;;;;;31.80;16.00;;;;;;;-4.54;89.53;97333.36;107542;1286;42156;-75
2021/12/13 05:09:54;;;;;;;29.70;15.00;;;;;;;-4.65;89.52;97332.55;107519;1287;39445;-75
2021/12/13 05:12:26;;;;;;;26.90;15.20;;;;;;;-4.71;89.51;97339.22;107496;1286;34110;-75
2021/12/13 05:14:59;;;;;;;27.70;14.60;;;;;;;-4.74;89.43;97346.60;107563;1286;40572;-75
2021/12/13 05:17:34;;;;;;;26.10;13.50;;;;;;;-4.79;89.47;97346.58;107604;1287;74354;-75
2021/12/13 05:20:11;;;;;;;25.80;12.80;;;;;;;-4.82;89.34;97345.70;107535;1286;39467;-76
2021/12/13 05:22:50;;;;;;;12.20;7.00;;;;;;;-4.91;89.39;97339.73;107516;1286;36339;-76
2021/12/13 05:25:30;;;;;;;15.20;7.40;;;;;;;-4.92;89.81;97327.54;107502;1286;38292;-75
2021/12/13 05:28:03;;;;;;;15.60;7.10;;;;;;;-4.81;90.44;97329.53;107627;1287;34384;-75
2021/12/13 05:30:34;;;;;;;13.20;7.20;;;;;;;-4.76;90.44;97338.23;107615;1287;37753;-75
2021/12/13 05:33:06;;;;;;;16.80;8.90;;;;;;;-4.79;90.05;97344.36;107519;1286;53883;-75
2021/12/13 05:35:39;;;;;;;22.00;13.30;;;;;;;-4.83;90.06;97350.77;106122;1286;1984858;-76
2021/12/13 05:38:10;;;;;;;24.30;13.00;;;;;;;-4.86;90.30;97355.80;107582;1285;30864;-75
2021/12/13 05:40:44;;;;;;;21.40;9.50;;;;;;;-4.85;90.24;97355.55;107496;1286;38795;-76
2021/12/13 05:43:22;;;;;;;18.30;10.70;;;;;;;-4.83;90.54;97349.67;107544;1285;37355;-76
2021/12/13 05:45:54;;;;;;;22.60;12.70;;;;;;;-4.89;90.30;97352.27;107474;1286;36831;-75
2021/12/13 05:48:36;;;;;;;17.40;10.40;;;;;;;-4.92;90.55;97355.80;107566;1285;34456;-76
2021/12/13 05:51:09;;;;;;;16.10;8.70;;;;;;;-4.89;90.77;97364.27;107524;1285;32601;-76
2021/12/13 05:53:45;;;;;;;18.50;10.50;;;;;;;-4.88;90.56;97363.98;107551;1282;38892;-76
2021/12/13 05:56:18;;;;;;;23.40;11.10;;;;;;;-4.88;90.87;97362.52;107523;1286;57247;-76
2021/12/13 05:58:50;;;;;;;19.50;11.40;;;;;;;-4.86;90.86;97364.94;107535;1286;30161;-76
2021/12/13 06:01:24;;;;;;;21.10;11.80;;;;;;;-4.83;91.13;97368.88;107436;1285;52752;-75
2021/12/13 06:04:08;;;;;;;20.60;11.20;;;;;;;-4.74;91.18;97374.86;107550;1285;42644;-76
2021/12/13 06:06:47;;;;;;;18.60;10.20;;;;;;;-4.69;91.12;97378.86;107478;1286;54788;-76
2021/12/13 06:09:45;;;;;;;17.10;8.60;;;;;;;-4.71;90.82;97386.69;107544;1285;42301;-76
2021/12/13 06:12:24;;;;;;;12.30;6.80;;;;;;;-4.77;90.69;97389.35;107479;1286;40513;-76
2021/12/13 06:14:54;;;;;;;15.10;7.70;;;;;;;-4.77;90.67;97383.02;107538;1286;45858;-76
2021/12/13 06:17:31;;;;;;;15.70;8.00;;;;;;;-4.73;90.95;97386.36;107438;1286;41139;-76
2021/12/13 06:20:06;;;;;;;17.90;8.00;;;;;;;-4.67;91.18;97391.05;107657;1286;37321;-76
2021/12/13 06:22:36;;;;;;;17.80;8.20;;;;;;;-4.60;91.27;97396.13;107523;1286;36234;-76
2021/12/13 06:25:09;;;;;;;17.50;8.80;;;;;;;-4.57;91.18;97397.06;107447;1287;38519;-76
2021/12/13 06:27:45;;;;;;;17.70;10.40;;;;;;;-4.61;90.82;97397.27;107594;1285;34104;-76
2021/12/13 06:30:22;;;;;;;19.90;10.90;;;;;;;-4.71;90.74;97401.79;107482;1285;38398;-76
2021/12/13 06:32:54;;;;;;;15.20;9.30;;;;;;;-4.71;91.07;97395.81;107520;1285;33958;-76
2021/12/13 06:35:37;;;;;;;13.40;6.70;;;;;;;-4.65;91.09;97395.17;107509;1285;43609;-75
2021/12/13 06:38:35;;;;;;;12.30;5.50;;;;;;;-4.64;91.08;97397.30;107519;1286;36627;-76
2021/12/13 06:41:10;;;;;;;9.70;5.20;;;;;;;-4.65;90.87;97405.68;107474;1286;44905;-76
2021/12/13 06:43:42;;;;;;;10.70;5.30;;;;;;;-4.64;91.00;97412.34;107477;1285;32222;-76
2021/12/13 06:46:29;;;;;;;10.80;4.70;;;;;;;-4.63;91.12;97407.67;107593;1284;27595;-75
2021/12/13 06:49:06;;;;;;;6.80;3.80;;;;;;;-4.59;91.19;97399.52;107566;1286;52698;-76
2021/12/13 06:51:49;;;;;;;8.90;5.20;;;;;;;-4.55;91.30;97403.86;107566;1286;45119;-76
2021/12/13 06:54:25;;;;;;;8.20;4.80;;;;;;;-4.48;91.38;97404.73;107632;1286;31703;-76
2021/12/13 06:56:57;;;;;;;7.80;4.30;;;;;;;-4.45;91.30;97411.30;107508;1287;29691;-76
2021/12/13 06:59:27;;;;;;;13.10;5.20;;;;;;;-4.52;91.04;97415.61;107552;1286;33149;-76
2021/12/13 07:02:10;;;;;;;11.80;5.50;;;;;;;-4.53;90.82;97415.41;107507;1285;40220;-76
2021/12/13 07:04:49;;;;;;;14.80;8.10;;;;;;;-4.52;90.91;97416.31;107463;1287;46338;-76
2021/12/13 07:07:20;;;;;;;17.00;9.40;;;;;;;-4.53;90.60;97419.48;107440;1287;34348;-75
2021/12/13 07:09:55;;;;;;;13.70;6.70;;;;;;;-4.39;90.63;97419.26;107478;1287;44189;-76
2021/12/13 07:12:28;;;;;;;8.90;4.60;;;;;;;-4.08;90.74;97421.30;107491;1287;36611;-76
2021/12/13 07:15:01;;;;;;;5.70;3.60;;;;;;;-3.68;90.98;97425.53;107578;1286;43021;-76
2021/12/13 07:17:35;;;;;;;5.70;3.10;;;;;;;-3.09;91.08;97427.23;107506;1286;37529;-76
2021/12/13 07:20:17;;;;;;;10.00;4.90;;;;;;;-2.49;90.70;97425.55;107499;1286;35980;-75
2021/12/13 07:22:57;;;;;;;15.10;9.30;;;;;;;-1.83;90.79;97427.83;107490;1286;42228;-76
2021/12/13 07:25:25;;;;;;;;;;;;;;;-1.31;89.90;97426.30;107493;1287;34113;-76
2021/12/13 07:27:54;;;;;;;18.00;8.20;;;;;;;-0.89;89.38;97428.57;107599;1285;35666;-75
2021/12/13 07:30:29;;;;;;;16.90;8.90;;;;;;;-0.65;88.54;97427.31;107515;1284;30417;-75
2021/12/13 07:33:03;;;;;;;13.40;8.50;;;;;;;-0.51;87.99;97428.06;107469;1282;207607;-76
2021/12/13 07:35:34;;;;;;;15.40;8.40;;;;;;;-0.24;87.78;97432.70;107580;1284;50648;-76
2021/12/13 07:38:07;;;;;;;17.40;9.60;;;;;;;0.20;87.19;97439.48;107528;1285;39811;-76
2021/12/13 07:40:44;;;;;;;15.70;9.20;;;;;;;0.67;86.83;97437.94;107477;1286;53134;-75
2021/12/13 07:43:20;;;;;;;16.80;10.40;;;;;;;1.04;86.05;97437.90;107475;1287;45763;-75
2021/12/13 07:45:57;;;;;;;15.10;8.40;;;;;;;1.14;85.09;97441.10;107466;1286;37527;-75
2021/12/13 07:48:30;;;;;;;18.20;8.90;;;;;;;1.51;85.28;97444.20;107509;1286;36972;-76
2021/12/13 07:51:12;;;;;;;16.20;8.80;;;;;;;1.88;85.12;97445.02;107536;1284;44730;-76
2021/12/13 07:53:47;;;;;;;15.90;9.20;;;;;;;2.29;84.55;97447.48;107484;1285;45448;-76
2021/12/13 07:56:37;;;;;;;17.80;8.80;;;;;;;2.44;83.73;97451.41;107462;1287;45235;-76
2021/12/13 07:59:09;;;;;;;14.60;8.40;;;;;;;2.45;83.22;97450.88;107538;1287;36589;-76
2021/12/13 08:01:46;;;;;;;13.10;7.70;;;;;;;2.44;82.88;97458.29;107432;1287;42826;-76
2021/12/13 08:04:18;;;;;;;15.00;9.00;;;;;;;2.48;82.64;97454.66;107457;1286;37603;-76
2021/12/13 08:06:50;;;;;;;14.10;7.70;;;;;;;2.46;81.88;97459.52;107505;1286;30370;-76
2021/12/13 08:09:24;;;;;;;13.40;7.60;;;;;;;2.35;81.17;97460.05;107496;1286;40341;-76
2021/12/13 08:11:57;;;;;;;13.00;7.60;;;;;;;2.23;81.16;97461.90;107490;1285;42620;-76
2021/12/13 08:14:29;;;;;;;13.00;7.10;;;;;;;2.09;80.58;97459.61;107558;1285;43502;-76
2021/12/13 08:17:07;;;;;;;13.40;7.90;;;;;;;1.74;79.71;97462.03;107432;1286;37949;-76
2021/12/13 08:19:36;;;;;;;15.20;8.50;;;;;;;1.27;78.73;97467.48;107469;1286;33569;-76
2021/12/13 08:22:13;;;;;;;14.90;8.40;;;;;;;0.85;78.77;97473.22;107499;1286;59532;-76
2021/12/13 08:24:47;;;;;;;19.80;11.00;;;;;;;0.72;79.35;97474.38;107427;1285;43546;-76
2021/12/13 08:27:22;;;;;;;15.00;8.80;;;;;;;0.58;79.37;97475.97;107496;1286;31480;-76
2021/12/13 08:29:51;;;;;;;16.40;9.90;;;;;;;0.58;79.76;97475.94;107552;1285;27918;-76
2021/12/13 08:32:23;;;;;;;13.60;7.90;;;;;;;0.66;80.37;97476.19;107663;1284;28593;-76
2021/12/13 08:34:56;;;;;;;14.30;8.30;;;;;;;0.73;80.25;97472.22;107494;1286;37596;-76
2021/12/13 08:37:30;;;;;;;14.60;8.20;;;;;;;0.81;80.62;97478.83;107481;1285;39474;-75
2021/12/13 08:40:03;;;;;;;14.80;8.60;;;;;;;0.96;80.38;97475.22;107658;1287;41612;-76
2021/12/13 08:42:36;;;;;;;15.40;8.90;;;;;;;0.99;80.55;97475.23;107556;1285;32689;-76
2021/12/13 08:45:12;;;;;;;20.50;10.60;;;;;;;1.10;80.48;97476.04;107495;1286;41740;-76
2021/12/13 08:47:46;;;;;;;18.40;10.40;;;;;;;1.22;80.35;97475.27;107540;1287;39084;-76
2021/12/13 08:50:21;;;;;;;15.50;8.80;;;;;;;1.25;79.79;97471.09;107450;1284;37885;-76
2021/12/13 08:52:55;;;;;;;17.30;9.40;;;;;;;1.15;79.46;97475.98;107485;1287;43754;-76
2021/12/13 08:55:29;;;;;;;16.80;8.90;;;;;;;1.17;79.92;97481.65;107577;1286;33766;-76
2021/12/13 08:58:11;;;;;;;13.90;8.30;;;;;;;1.15;79.60;97482.01;107556;1285;35930;-75
2021/12/13 09:00:49;;;;;;;16.00;8.80;;;;;;;1.09;79.40;97482.49;107436;1286;49998;-76
2021/12/13 09:03:39;;;;;;;15.60;7.90;;;;;;;1.02;79.39;97483.78;107492;1287;37476;-75
2021/12/13 09:06:27;;;;;;;12.10;7.20;;;;;;;0.99;79.53;97488.83;107490;1286;36768;-75
2021/12/13 09:09:03;;;;;;;13.70;7.50;;;;;;;0.83;79.09;97489.52;107504;1286;28874;-75
2021/12/13 09:11:38;;;;;;;11.90;6.80;;;;;;;0.81;79.28;97484.83;107638;1286;30863;-76
2021/12/13 09:14:16;;;;;;;9.60;5.70;;;;;;;0.97;79.74;97484.04;107465;1287;32350;-75
2021/12/13 09:16:54;;;;;;;11.10;5.60;;;;;;;1.07;79.57;97478.60;107445;1286;30904;-75
2021/12/13 09:19:28;;;;;;;10.30;4.20;;;;;;;0.98;78.97;97475.45;107397;1287;57879;-75
2021/12/13 09:22:10;;;;;;;8.50;4.20;;;;;;;0.86;78.95;97478.98;107630;1284;35911;-75
2021/12/13 09:24:48;;;;;;;10.80;4.90;;;;;;;0.82;78.53;97469.40;107519;1284;41201;-75
2021/12/13 09:27:29;;;;;;;9.40;4.80;;;;;;;0.62;78.45;97470.92;107469;1287;39028;-75
2021/12/13 09:30:06;;;;;;;9.10;4.60;;;;;;;0.58;78.79;97471.58;107551;1287;39713;-75
2021/12/13 09:32:38;;;;;;;12.60;5.90;;;;;;;0.72;79.10;97465.30;107550;1286;39574;-75
2021/12/13 09:35:35;;;;;;;11.30;6.00;;;;;;;0.79;79.26;97469.14;107559;1285;36530;-75
2021/12/13 09:38:29;;;;;;;12.80;6.80;;;;;;;0.86;79.07;97458.63;107633;1286;34330;-75
2021/12/13 09:41:08;;;;;;;12.40;7.30;;;;;;;0.93;79.13;97461.76;107581;1286;33082;-75
2021/12/13 09:43:47;;;;;;;14.60;7.20;;;;;;;1.00;79.31;97461.56;107522;1287;36506;-75
2021/12/13 09:46:21;;;;;;;17.90;9.50;;;;;;;1.03;78.73;97460.11;107565;1287;27785;-75
2021/12/13 09:48:54;;;;;;;19.40;10.20;;;;;;;1.09;78.70;97461.45;107463;1287;51734;-75
2021/12/13 09:51:28;;;;;;;16.60;9.10;;;;;;;1.19;78.92;97459.83;107511;1285;30133;-75
2021/12/13 09:54:00;;;;;;;24.80;12.00;;;;;;;1.28;78.52;97458.52;107565;1286;37586;-75
2021/12/13 09:56:36;;;;;;;17.30;11.10;;;;;;;1.24;78.34;97458.11;107851;1286;22691;-75
2021/12/13 09:59:15;;;;;;;19.00;10.60;;;;;;;1.37;78.42;97456.41;107854;1286;24227;-75
2021/12/13 10:01:45;;;;;;;17.30;10.20;;;;;;;1.55;78.63;97454.83;107486;1287;27581;-75
2021/12/13 10:04:17;;;;;;;14.40;8.30;;;;;;;1.61;78.17;97454.64;107550;1286;32685;-74
2021/12/13 10:06:50;;;;;;;12.90;7.30;;;;;;;1.72;78.32;97457.44;107469;1286;31333;-75
2021/12/13 10:09:22;;;;;;;13.50;7.90;;;;;;;1.90;77.67;97452.61;107445;1286;39419;-75
2021/12/13 10:11:55;;;;;;;11.50;7.20;;;;;;;1.77;77.10;97455.16;107581;1285;41268;-75
2021/12/13 10:14:28;;;;;;;9.60;6.00;;;;;;;1.81;77.51;97451.02;107487;1287;32601;-75
2021/12/13 10:16:58;;;;;;;12.20;6.20;;;;;;;1.91;77.25;97448.80;107478;1286;31929;-75
2021/12/13 10:19:41;;;;;;;12.80;7.40;;;;;;;1.95;77.09;97448.21;107437;1287;37021;-75
2021/12/13 10:22:13;;;;;;;16.90;8.00;;;;;;;1.99;77.13;97446.66;107552;1286;33342;-75
2021/12/13 10:24:46;;;;;;;13.20;7.80;;;;;;;2.09;76.95;97448.96;107705;1286;32796;-75
2021/12/13 10:27:16;;;;;;;11.90;8.10;;;;;;;2.13;76.85;97451.23;107523;1287;34374;-75
2021/12/13 10:29:49;;;;;;;14.70;8.40;;;;;;;2.27;76.86;97452.01;107729;1286;38229;-75
2021/12/13 10:32:23;;;;;;;16.80;8.90;;;;;;;2.39;76.61;97457.21;107489;1286;36691;-75
2021/12/13 10:34:57;;;;;;;13.90;8.10;;;;;;;2.50;76.57;97456.61;107650;1286;31492;-75
2021/12/13 10:37:29;;;;;;;22.90;9.70;;;;;;;2.62;76.28;97464.71;107462;1286;36177;-75
2021/12/13 10:40:01;;;;;;;17.70;10.30;;;;;;;2.55;75.42;97466.20;107502;1287;45685;-76
2021/12/13 10:42:36;;;;;;;16.60;10.20;;;;;;;2.37;74.82;97464.11;107474;1285;41733;-75
2021/12/13 10:45:10;;;;;;;14.20;9.10;;;;;;;2.28;75.15;97462.32;107501;1287;34769;-75
2021/12/13 10:47:41;;;;;;;18.30;9.60;;;;;;;2.43;75.63;97462.43;107588;1285;44270;-75
2021/12/13 10:50:17;;;;;;;20.70;10.10;;;;;;;2.50;75.50;97461.29;107512;1286;34526;-75
2021/12/13 10:52:48;;;;;;;16.10;9.60;;;;;;;2.54;75.43;97459.04;107650;1285;30634;-75
2021/12/13 10:55:21;;;;;;;17.70;10.90;;;;;;;2.52;74.77;97458.59;107592;1287;35554;-75
2021/12/13 10:57:50;;;;;;;19.10;10.40;;;;;;;2.36;74.50;97456.42;107599;1287;49423;-76
2021/12/13 11:00:22;;;;;;;16.60;9.20;;;;;;;2.30;74.50;97457.56;107525;1287;32712;-76
2021/12/13 11:02:54;;;;;;;15.10;8.50;;;;;;;2.36;74.77;97456.57;107481;1287;39416;-76
2021/12/13 11:05:28;;;;;;;15.50;9.20;;;;;;;2.44;74.99;97453.59;107494;1287;34113;-76
2021/12/13 11:07:59;;;;;;;15.90;8.70;;;;;;;2.58;75.14;97446.70;107514;1285;35673;-76
2021/12/13 11:10:34;;;;;;;15.10;8.60;;;;;;;2.69;74.94;97444.40;107476;1287;38712;-76
2021/12/13 11:13:04;;;;;;;13.60;8.00;;;;;;;2.80;75.04;97445.94;107500;1286;32102;-75
2021/12/13 11:15:36;;;;;;;15.20;7.90;;;;;;;2.88;74.66;97444.84;107496;1285;35346;-76
2021/12/13 11:18:14;;;;;;;13.50;7.90;;;;;;;2.98;74.77;97436.86;107659;1285;35021;-76
2021/12/13 11:20:48;;;;;;;16.40;9.10;;;;;;;3.10;74.30;97431.84;107671;1286;30068;-75
2021/12/13 11:23:20;;;;;;;17.30;8.50;;;;;;;2.94;73.44;97431.28;107644;1287;28280;-76
2021/12/13 11:25:55;;;;;;;17.80;8.90;;;;;;;2.83;73.36;97429.65;107536;1286;34290;-76
2021/12/13 11:28:25;;;;;;;16.90;7.90;;;;;;;2.90;73.80;97426.33;107620;1285;31133;-75
2021/12/13 11:30:56;;;;;;;14.00;6.60;;;;;;;2.93;72.99;97426.65;107720;1285;34840;-75
2021/12/13 11:33:50;;;;;;;15.30;8.40;;;;;;;2.69;72.08;97424.66;107575;1287;44761;-75
2021/12/13 11:36:41;;;;;;;12.30;6.90;;;;;;;2.35;71.94;97429.64;107560;1287;37010;-75
2021/12/13 11:39:46;;;;;;;14.50;7.10;;;;;;;2.18;72.32;97424.23;107443;1287;40166;-76
2021/12/13 11:42:54;;;;;;;13.40;7.10;;;;;;;1.99;72.06;97421.11;107524;1287;39481;-75
2021/12/13 11:45:43;;;;;;;13.10;6.60;;;;;;;2.07;73.15;97425.72;107563;1287;45703;-75
2021/12/13 11:48:50;;;;;;;12.10;7.10;;;;;;;2.16;72.73;97424.92;107510;1285;35220;-75
2021/12/13 11:51:41;;;;;;;11.60;6.40;;;;;;;2.16;72.84;97428.89;107472;1286;33903;-76
2021/12/13 11:54:36;;;;;;;15.10;7.00;;;;;;;2.16;72.74;97428.98;107569;1286;35043;-75
2021/12/13 11:57:55;;;;;;;14.90;7.90;;;;;;;2.10;72.56;97425.31;107488;1287;41976;-75
2021/12/13 12:00:48;;;;;;;15.50;8.70;;;;;;;2.13;72.45;97429.82;107486;1285;31771;-75
2021/12/13 12:03:58;;;;;;;18.50;9.60;;;;;;;2.03;72.41;97424.57;107564;1287;31770;-75